createdAt,value
2022-11-07T00:02:28.741Z,71.55
2022-11-07T00:05:01.255Z,71.57
2022-11-07T00:07:34.563Z,72.07
2022-11-07T00:10:07.474Z,72.34
2022-11-07T00:12:40.314Z,73.02
2022-11-07T00:15:15.192Z,73.35
2022-11-07T00:17:47.616Z,73.45
2022-11-07T00:20:20.023Z,73.79
2022-11-07T00:22:52.071Z,73.73
2022-11-07T00:25:24.298Z,73.35
2022-11-07T00:27:57.382Z,73.20
2022-11-07T00:30:29.714Z,73.18
2022-11-07T00:33:01.911Z,73.00
2022-11-07T00:35:34.495Z,72.57
2022-11-07T00:38:06.766Z,72.84
2022-11-07T00:40:39.163Z,72.98
2022-11-07T00:43:12.720Z,72.57
2022-11-07T00:45:44.549Z,72.50
2022-11-07T00:48:16.720Z,72.66
2022-11-07T00:50:50.623Z,73.15
2022-11-07T00:53:22.875Z,73.35
2022-11-07T00:55:54.951Z,73.82
2022-11-07T00:58:27.406Z,73.98
2022-11-07T01:00:59.876Z,74.14
2022-11-07T01:03:49.622Z,74.06
2022-11-07T01:06:23.718Z,74.27
2022-11-07T01:08:57.828Z,74.38
2022-11-07T01:11:31.352Z,74.24
2022-11-07T01:14:05.574Z,74.34
2022-11-07T01:16:39.141Z,74.20
2022-11-07T01:19:12.051Z,74.03
2022-11-07T01:21:45.031Z,74.21
2022-11-07T01:24:18.211Z,74.21
2022-11-07T01:26:51.809Z,74.08
2022-11-07T01:29:25.312Z,74.04
2022-11-07T01:31:57.806Z,73.70
2022-11-07T01:34:30.077Z,73.25
2022-11-07T01:37:03.678Z,73.02
2022-11-07T01:39:38.492Z,72.81
2022-11-07T01:42:16.049Z,72.68
2022-11-07T01:44:59.946Z,72.62
2022-11-07T01:47:36.268Z,72.38
2022-11-07T01:50:12.556Z,72.46
2022-11-07T01:52:50.541Z,72.60
2022-11-07T01:55:29.245Z,72.75
2022-11-07T01:58:10.204Z,72.98
2022-11-07T02:00:43.046Z,72.93
2022-11-07T02:03:19.795Z,73.10
2022-11-07T02:05:57.619Z,73.66
2022-11-07T02:08:33.951Z,73.73
2022-11-07T02:11:10.035Z,73.41
2022-11-07T02:13:42.976Z,73.15
2022-11-07T02:16:16.313Z,73.33
2022-11-07T02:18:49.273Z,73.72
2022-11-07T02:21:41.249Z,73.60
2022-11-07T02:24:25.963Z,73.57
2022-11-07T02:26:59.884Z,73.48
2022-11-07T02:29:34.522Z,73.28
2022-11-07T02:32:08.876Z,73.28
2022-11-07T02:34:42.309Z,73.36
2022-11-07T02:37:25.492Z,73.17
2022-11-07T02:39:58.463Z,73.02
2022-11-07T02:42:43.555Z,73.08
2022-11-07T02:45:20.044Z,72.99
2022-11-07T02:47:52.316Z,72.46
2022-11-07T02:50:24.963Z,72.44
2022-11-07T02:52:57.403Z,72.24
2022-11-07T02:55:29.540Z,72.20
2022-11-07T02:58:02.134Z,72.04
2022-11-07T03:00:34.935Z,71.92
2022-11-07T03:03:06.968Z,72.01
2022-11-07T03:05:41.042Z,72.04
2022-11-07T03:08:13.290Z,72.03
2022-11-07T03:10:45.562Z,72.47
2022-11-07T03:13:17.878Z,72.53
2022-11-07T03:15:51.609Z,72.46
2022-11-07T03:18:24.270Z,72.36
2022-11-07T03:20:56.555Z,72.43
2022-11-07T03:23:28.647Z,72.45
2022-11-07T03:26:00.969Z,72.84
2022-11-07T03:28:36.097Z,73.40
2022-11-07T03:31:09.556Z,73.39
2022-11-07T03:33:42.306Z,73.53
2022-11-07T03:36:14.658Z,73.58
2022-11-07T03:38:47.534Z,73.09
2022-11-07T03:41:20.059Z,72.59
2022-11-07T03:43:52.224Z,72.61
2022-11-07T03:46:24.772Z,72.48
2022-11-07T03:48:57.096Z,72.38
2022-11-07T03:51:29.573Z,72.08
2022-11-07T03:54:01.818Z,72.11
2022-11-07T03:56:34.277Z,72.04
2022-11-07T03:59:06.315Z,72.01
2022-11-07T04:01:39.031Z,72.33
2022-11-07T04:04:13.369Z,72.83
2022-11-07T04:06:45.419Z,73.45
2022-11-07T04:09:17.935Z,74.14
2022-11-07T04:12:07.705Z,74.78
2022-11-07T04:14:57.480Z,74.76
2022-11-07T04:17:32.362Z,75.12
2022-11-07T04:20:11.171Z,75.56
2022-11-07T04:22:43.877Z,75.43
2022-11-07T04:25:17.199Z,76.01
2022-11-07T04:27:49.461Z,76.73
2022-11-07T04:30:25.853Z,76.86
2022-11-07T04:33:00.348Z,76.65
2022-11-07T04:35:34.689Z,76.58
2022-11-07T04:38:10.760Z,76.45
2022-11-07T04:40:43.642Z,76.70
2022-11-07T04:43:16.036Z,76.70
2022-11-07T04:45:48.485Z,76.83
2022-11-07T04:48:20.651Z,76.83
2022-11-07T04:50:53.515Z,76.94
2022-11-07T04:53:26.758Z,77.10
2022-11-07T04:55:59.689Z,76.86
2022-11-07T04:58:31.752Z,77.04
2022-11-07T05:01:03.906Z,76.97
2022-11-07T05:03:41.299Z,77.11
2022-11-07T05:06:16.341Z,77.07
2022-11-07T05:08:48.765Z,77.04
2022-11-07T05:11:22.709Z,76.84
2022-11-07T05:13:54.829Z,76.77
2022-11-07T05:16:27.710Z,76.71
2022-11-07T05:18:59.842Z,76.80
2022-11-07T05:21:32.074Z,76.82
2022-11-07T05:24:04.522Z,76.94
2022-11-07T05:26:36.707Z,77.17
2022-11-07T05:29:11.642Z,77.29
2022-11-07T05:31:43.818Z,77.19
2022-11-07T05:34:16.490Z,76.66
2022-11-07T05:36:48.504Z,76.23
2022-11-07T05:39:20.653Z,75.87
2022-11-07T05:41:53.077Z,75.65
2022-11-07T05:44:25.344Z,75.72
2022-11-07T05:46:59.006Z,75.74
2022-11-07T05:49:31.282Z,75.38
2022-11-07T05:52:03.642Z,75.93
2022-11-07T05:54:37.056Z,75.98
2022-11-07T05:57:09.496Z,76.29
2022-11-07T05:59:41.954Z,76.19
2022-11-07T06:02:14.809Z,75.67
2022-11-07T06:04:46.850Z,75.67
2022-11-07T06:07:19.576Z,75.62
2022-11-07T06:09:52.210Z,75.72
2022-11-07T06:12:24.639Z,75.66
2022-11-07T06:14:57.054Z,75.48
2022-11-07T06:17:29.372Z,75.28
2022-11-07T06:20:01.370Z,74.97
2022-11-07T06:22:34.159Z,75.31
2022-11-07T06:25:08.410Z,74.97
2022-11-07T06:27:43.705Z,74.83
2022-11-07T06:30:16.299Z,74.52
2022-11-07T06:32:48.370Z,74.60
2022-11-07T06:35:20.452Z,74.67
2022-11-07T06:37:53.757Z,74.14
2022-11-07T06:40:26.216Z,74.67
2022-11-07T06:43:06.331Z,74.24
2022-11-07T06:45:39.188Z,74.80
2022-11-07T06:48:13.418Z,74.74
2022-11-07T06:50:45.459Z,74.59
2022-11-07T06:53:18.048Z,74.76
2022-11-07T06:55:50.703Z,74.65
2022-11-07T06:58:23.658Z,74.48
2022-11-07T07:00:59.156Z,74.75
2022-11-07T07:03:31.249Z,74.47
2022-11-07T07:06:08.183Z,74.13
2022-11-07T07:08:40.760Z,74.44
2022-11-07T07:11:15.609Z,74.11
2022-11-07T07:13:47.783Z,74.22
2022-11-07T07:16:19.980Z,74.50
2022-11-07T07:18:52.136Z,74.63
2022-11-07T07:21:24.408Z,74.93
2022-11-07T07:23:56.713Z,75.27
2022-11-07T07:26:29.546Z,75.43
2022-11-07T07:29:01.897Z,75.54
2022-11-07T07:31:34.520Z,76.34
2022-11-07T07:34:06.785Z,77.10
2022-11-07T07:36:39.128Z,76.71
2022-11-07T07:39:11.640Z,76.22
2022-11-07T07:41:43.688Z,76.39
2022-11-07T07:44:24.111Z,75.99
2022-11-07T07:46:56.185Z,76.64
2022-11-07T07:49:29.161Z,77.12
2022-11-07T07:52:01.112Z,76.69
2022-11-07T07:54:33.311Z,76.50
2022-11-07T07:57:06.016Z,76.24
2022-11-07T07:59:38.122Z,76.11
2022-11-07T08:02:13.017Z,75.98
2022-11-07T08:04:45.726Z,76.18
2022-11-07T08:07:17.810Z,76.49
2022-11-07T08:09:50.016Z,76.26
2022-11-07T08:12:22.143Z,76.41
2022-11-07T08:14:54.177Z,76.62
2022-11-07T08:17:26.154Z,76.58
2022-11-07T08:19:58.275Z,76.63
2022-11-07T08:22:30.685Z,76.28
2022-11-07T08:25:02.909Z,75.87
2022-11-07T08:27:35.653Z,75.88
2022-11-07T08:30:16.636Z,75.83
2022-11-07T08:32:50.169Z,74.77
2022-11-07T08:35:22.636Z,74.13
2022-11-07T08:37:56.223Z,74.54
2022-11-07T08:40:28.726Z,74.85
2022-11-07T08:43:03.308Z,75.17
2022-11-07T08:45:35.592Z,75.01
2022-11-07T08:48:08.500Z,74.58
2022-11-07T08:50:40.627Z,74.72
2022-11-07T08:53:12.844Z,74.76
2022-11-07T08:55:45.127Z,75.61
2022-11-07T08:58:17.768Z,75.22
2022-11-07T09:00:49.970Z,75.96
2022-11-07T09:06:14.158Z,74.95
2022-11-07T09:08:46.199Z,74.92
2022-11-07T09:11:19.314Z,74.95
2022-11-07T09:13:51.560Z,75.26
2022-11-07T09:16:24.555Z,75.10
2022-11-07T09:18:57.122Z,75.09
2022-11-07T09:21:29.219Z,74.90
2022-11-07T09:24:01.284Z,75.37
2022-11-07T09:26:34.072Z,75.58
2022-11-07T09:29:06.532Z,75.34
2022-11-07T09:31:38.915Z,75.06
2022-11-07T09:34:10.919Z,75.37
2022-11-07T09:36:42.955Z,75.06
2022-11-07T09:39:14.997Z,74.86
2022-11-07T09:41:57.165Z,75.36
2022-11-07T09:44:54.417Z,75.61
2022-11-07T09:47:35.962Z,75.58
2022-11-07T09:50:15.710Z,76.03
2022-11-07T09:52:55.100Z,75.83
2022-11-07T09:55:33.475Z,76.14
2022-11-07T09:58:12.055Z,76.50
2022-11-07T10:00:44.791Z,76.13
2022-11-07T10:03:17.314Z,76.02
2022-11-07T10:05:55.872Z,76.14
2022-11-07T10:08:36.415Z,76.20
2022-11-07T10:11:14.136Z,75.83
2022-11-07T10:13:58.460Z,75.17
2022-11-07T10:16:43.640Z,76.24
2022-11-07T10:19:21.396Z,76.42
2022-11-07T10:22:00.888Z,76.65
2022-11-07T10:24:47.279Z,76.42
2022-11-07T10:27:21.778Z,76.60
2022-11-07T10:29:56.454Z,76.53
2022-11-07T10:32:30.740Z,76.11
2022-11-07T10:35:17.241Z,75.97
2022-11-07T10:37:57.338Z,75.58
2022-11-07T10:40:38.582Z,75.71
2022-11-07T10:43:19.189Z,76.56
2022-11-07T10:45:53.467Z,76.91
2022-11-07T10:48:29.554Z,77.03
2022-11-07T10:51:01.984Z,77.32
2022-11-07T10:53:43.930Z,77.03
2022-11-07T10:56:20.035Z,76.83
2022-11-07T10:58:54.392Z,77.05
2022-11-07T11:01:30.415Z,76.56
2022-11-07T11:04:03.289Z,76.30
2022-11-07T11:06:35.668Z,76.71
2022-11-07T11:09:20.000Z,77.09
2022-11-07T11:11:56.061Z,76.70
2022-11-07T11:14:28.480Z,76.41
2022-11-07T11:17:00.673Z,76.65
2022-11-07T11:19:41.254Z,75.81
2022-11-07T11:22:20.428Z,75.47
2022-11-07T11:25:15.326Z,76.00
2022-11-07T11:27:50.326Z,75.33
2022-11-07T11:30:23.415Z,74.87
2022-11-07T11:33:04.442Z,74.61
2022-11-07T11:35:42.567Z,74.96
2022-11-07T11:38:18.938Z,75.51
2022-11-07T11:41:03.312Z,75.31
2022-11-07T11:43:46.714Z,75.11
2022-11-07T11:46:27.932Z,74.95
2022-11-07T11:49:02.842Z,74.06
2022-11-07T11:51:41.999Z,73.75
2022-11-07T11:54:16.603Z,73.28
2022-11-07T11:56:55.007Z,72.40
2022-11-07T11:59:49.234Z,72.77
2022-11-07T12:02:40.029Z,72.29
2022-11-07T12:05:25.111Z,70.91
2022-11-07T12:08:09.533Z,71.18
2022-11-07T12:10:54.007Z,71.22
2022-11-07T12:13:37.900Z,71.43
2022-11-07T12:16:21.226Z,71.86
2022-11-07T12:19:04.608Z,72.59
2022-11-07T12:21:45.910Z,72.89
2022-11-07T12:24:29.275Z,73.37
2022-11-07T12:27:10.468Z,73.66
2022-11-07T12:29:59.858Z,74.53
2022-11-07T12:32:42.007Z,74.46
2022-11-07T12:35:33.605Z,74.64
2022-11-07T12:38:40.049Z,74.35
2022-11-07T12:41:20.442Z,74.37
2022-11-07T12:44:05.948Z,74.18
2022-11-07T12:46:49.039Z,74.18
2022-11-07T12:52:37.431Z,74.78
2022-11-07T12:55:21.149Z,74.44
2022-11-07T12:57:57.318Z,74.12
2022-11-07T13:00:31.212Z,73.98
2022-11-07T13:03:24.225Z,74.30
2022-11-07T13:06:07.108Z,74.44
2022-11-07T13:08:47.068Z,74.95
2022-11-07T13:11:29.061Z,75.00
2022-11-07T13:14:24.045Z,75.08
2022-11-07T13:17:20.293Z,74.96
2022-11-07T13:20:04.480Z,75.37
2022-11-07T13:22:40.199Z,75.42
2022-11-07T13:25:29.105Z,75.43
2022-11-07T13:28:25.521Z,75.29
2022-11-07T13:31:05.151Z,75.57
2022-11-07T13:33:43.343Z,75.90
2022-11-07T13:36:27.470Z,76.08
2022-11-07T13:39:01.980Z,76.02
2022-11-07T13:41:36.752Z,76.32
2022-11-07T13:44:19.547Z,76.56
2022-11-07T13:46:57.303Z,76.40
2022-11-07T13:49:39.963Z,76.65
2022-11-07T13:52:26.220Z,76.41
2022-11-07T13:55:05.391Z,76.68
2022-11-07T13:57:45.313Z,76.79
2022-11-07T14:00:25.741Z,76.57
2022-11-07T14:03:01.195Z,76.49
2022-11-07T14:05:38.924Z,76.24
2022-11-07T14:08:24.854Z,76.72
2022-11-07T14:10:58.921Z,76.51
2022-11-07T14:13:41.225Z,76.74
2022-11-07T14:16:27.239Z,76.88
2022-11-07T14:19:03.370Z,76.41
2022-11-07T14:21:38.255Z,76.34
2022-11-07T14:24:25.367Z,76.38
2022-11-07T14:27:09.787Z,76.42
2022-11-07T14:29:52.811Z,76.53
2022-11-07T14:32:31.983Z,76.03
2022-11-07T14:35:11.445Z,76.12
2022-11-07T14:37:43.663Z,76.30
2022-11-07T14:40:18.475Z,75.99
2022-11-07T14:42:52.833Z,75.85
2022-11-07T14:46:05.564Z,76.00
2022-11-07T14:48:21.282Z,76.03
2022-11-07T14:50:54.427Z,75.86
2022-11-07T14:53:33.964Z,76.15
2022-11-07T14:56:14.353Z,76.17
2022-11-07T14:58:47.019Z,76.49
2022-11-07T15:01:29.090Z,76.62
2022-11-07T15:04:05.549Z,76.48
2022-11-07T15:06:45.508Z,76.40
2022-11-07T15:09:18.612Z,76.69
2022-11-07T15:12:00.580Z,76.49
2022-11-07T15:14:39.848Z,76.63
2022-11-07T15:17:24.860Z,76.46
2022-11-07T15:20:03.774Z,76.32
2022-11-07T15:22:41.532Z,76.48
2022-11-07T15:25:29.581Z,76.58
2022-11-07T15:28:17.464Z,76.75
2022-11-07T15:30:51.864Z,76.84
2022-11-07T15:33:25.873Z,77.04
2022-11-07T15:36:03.094Z,77.23
2022-11-07T15:38:35.595Z,77.36
2022-11-07T15:41:09.219Z,77.56
2022-11-07T15:43:43.514Z,77.51
2022-11-07T15:46:27.239Z,77.43
2022-11-07T15:49:00.469Z,77.08
2022-11-07T15:51:32.900Z,77.36
2022-11-07T15:54:05.168Z,76.97
2022-11-07T15:56:37.678Z,76.93
2022-11-07T15:59:19.630Z,77.18
2022-11-07T16:01:53.059Z,77.80
2022-11-07T16:04:26.860Z,77.80
2022-11-07T16:06:59.165Z,77.61
2022-11-07T16:09:35.612Z,78.02
2022-11-07T16:12:10.296Z,78.09
2022-11-07T16:14:44.543Z,78.11
2022-11-07T16:17:19.959Z,78.08
2022-11-07T16:19:53.097Z,78.80
2022-11-07T16:22:29.597Z,79.34
2022-11-07T16:25:08.816Z,79.63
2022-11-07T16:27:51.251Z,79.37
2022-11-07T16:30:26.985Z,80.08
2022-11-07T16:33:01.221Z,80.52
2022-11-07T16:35:35.966Z,80.85
2022-11-07T16:38:16.868Z,80.50
2022-11-07T16:40:49.889Z,80.55
2022-11-07T16:43:24.676Z,80.64
2022-11-07T16:45:59.272Z,80.52
2022-11-07T16:48:31.869Z,80.97
2022-11-07T16:51:05.460Z,80.65
2022-11-07T16:53:40.922Z,80.50
2022-11-07T16:56:25.540Z,80.25
2022-11-07T16:58:59.804Z,80.05
2022-11-07T17:01:32.567Z,80.14
2022-11-07T17:04:07.671Z,80.25
2022-11-07T17:06:43.947Z,79.93
2022-11-07T17:09:20.384Z,79.95
2022-11-07T17:11:52.947Z,79.92
2022-11-07T17:14:25.708Z,80.60
2022-11-07T17:17:01.879Z,81.09
2022-11-07T17:19:35.402Z,80.83
2022-11-07T17:22:11.378Z,81.03
2022-11-07T17:24:46.554Z,81.10
2022-11-07T17:27:29.652Z,81.55
2022-11-07T17:30:08.199Z,81.68
2022-11-07T17:32:42.064Z,81.34
2022-11-07T17:38:07.894Z,81.87
2022-11-07T17:40:41.383Z,81.82
2022-11-07T17:43:14.254Z,81.97
2022-11-07T17:45:48.627Z,81.81
2022-11-07T17:48:23.009Z,81.79
2022-11-07T17:50:55.473Z,81.93
2022-11-07T17:53:32.685Z,81.94
2022-11-07T17:56:07.656Z,81.63
2022-11-07T17:58:40.552Z,81.43
2022-11-07T18:01:18.188Z,81.50
2022-11-07T18:03:52.281Z,81.03
2022-11-07T18:06:26.743Z,80.87
2022-11-07T18:09:00.819Z,80.49
2022-11-07T18:11:36.615Z,80.23
2022-11-07T18:14:13.457Z,80.43
2022-11-07T18:16:45.966Z,80.72
2022-11-07T18:19:19.648Z,80.79
2022-11-07T18:21:54.961Z,80.83
2022-11-07T18:24:28.600Z,80.82
2022-11-07T18:27:01.064Z,81.10
2022-11-07T18:29:33.656Z,81.16
2022-11-07T18:32:10.857Z,81.03
2022-11-07T18:34:43.585Z,81.17
2022-11-07T18:37:15.682Z,81.09
2022-11-07T18:39:47.985Z,80.65
2022-11-07T18:42:20.378Z,80.52
2022-11-07T18:44:54.145Z,80.45
2022-11-07T18:47:26.430Z,80.61
2022-11-07T18:50:01.359Z,81.06
2022-11-07T18:52:34.763Z,81.10
2022-11-07T18:55:11.683Z,80.90
2022-11-07T18:57:43.776Z,81.02
2022-11-07T19:00:23.396Z,81.52
2022-11-07T19:02:55.854Z,81.13
2022-11-07T19:05:29.344Z,81.12
2022-11-07T19:08:01.901Z,81.20
2022-11-07T19:10:36.039Z,80.64
2022-11-07T19:13:08.672Z,80.59
2022-11-07T19:15:42.875Z,81.12
2022-11-07T19:18:15.903Z,80.66
2022-11-07T19:20:48.832Z,80.63
2022-11-07T19:23:22.231Z,80.14
2022-11-07T19:25:55.568Z,80.64
2022-11-07T19:28:27.730Z,80.44
2022-11-07T19:31:03.001Z,80.02
2022-11-07T19:33:35.345Z,80.31
2022-11-07T19:36:13.370Z,80.52
2022-11-07T19:38:46.786Z,80.27
2022-11-07T19:41:20.057Z,79.89
2022-11-07T19:43:52.662Z,80.45
2022-11-07T19:46:27.073Z,80.67
2022-11-07T19:49:00.985Z,80.92
2022-11-07T19:51:33.977Z,80.51
2022-11-07T19:54:09.812Z,81.00
2022-11-07T19:56:49.876Z,81.06
2022-11-07T19:59:29.836Z,81.08
2022-11-07T20:05:30.788Z,81.61
2022-11-07T20:08:48.034Z,81.06
2022-11-07T20:11:55.184Z,81.10
2022-11-07T20:14:53.457Z,81.62
2022-11-07T20:17:26.914Z,81.83
2022-11-07T20:20:07.243Z,81.68
2022-11-07T20:22:49.774Z,81.32
2022-11-07T20:25:24.881Z,81.22
2022-11-07T20:28:00.577Z,81.02
2022-11-07T20:30:44.549Z,80.81
2022-11-07T20:33:20.740Z,81.21
2022-11-07T20:36:09.259Z,80.96
2022-11-07T20:38:43.242Z,80.74
2022-11-07T20:41:22.133Z,80.31
2022-11-07T20:44:01.475Z,80.68
2022-11-07T20:46:42.326Z,80.77
2022-11-07T20:49:22.401Z,81.12
2022-11-07T20:52:27.235Z,81.03
2022-11-07T20:55:03.074Z,81.35
2022-11-07T20:58:13.823Z,81.50
2022-11-07T21:00:54.578Z,81.41
2022-11-07T21:03:37.032Z,81.28
2022-11-07T21:06:16.699Z,81.32
2022-11-07T21:09:20.694Z,81.14
2022-11-07T21:12:17.855Z,81.35
2022-11-07T21:14:50.592Z,81.46
2022-11-07T21:17:25.682Z,81.63
2022-11-07T21:19:58.888Z,81.59
2022-11-07T21:22:32.552Z,81.61
2022-11-07T21:25:09.996Z,81.40
2022-11-07T21:27:44.037Z,81.64
2022-11-07T21:30:17.360Z,81.61
2022-11-07T21:32:49.504Z,81.69
2022-11-07T21:35:24.373Z,81.91
2022-11-07T21:37:57.532Z,81.33
2022-11-07T21:40:31.068Z,80.95
2022-11-07T21:43:04.444Z,80.83
2022-11-07T21:45:39.228Z,81.00
2022-11-07T21:48:13.051Z,81.12
2022-11-07T21:50:45.720Z,81.30
2022-11-07T21:53:19.335Z,81.33
2022-11-07T21:55:52.273Z,80.99
2022-11-07T21:58:25.053Z,80.34
2022-11-07T22:01:01.758Z,80.42
2022-11-07T22:04:04.289Z,80.52
2022-11-07T22:06:27.260Z,80.78
2022-11-07T22:08:59.375Z,80.83
2022-11-07T22:11:31.706Z,80.66
2022-11-07T22:14:03.932Z,80.48
2022-11-07T22:16:36.481Z,80.21
2022-11-07T22:19:12.448Z,80.30
2022-11-07T22:21:50.212Z,80.72
2022-11-07T22:24:25.586Z,79.90
2022-11-07T22:27:00.651Z,80.34
2022-11-07T22:29:34.267Z,80.41
2022-11-07T22:32:09.963Z,80.26
2022-11-07T22:34:43.858Z,79.93
2022-11-07T22:37:17.387Z,79.93
2022-11-07T22:39:49.653Z,80.23
2022-11-07T22:42:23.884Z,80.28
2022-11-07T22:44:57.898Z,80.04
2022-11-07T22:47:30.524Z,80.18
2022-11-07T22:50:02.558Z,80.65
2022-11-07T22:52:35.132Z,80.80
2022-11-07T22:55:09.663Z,80.57
2022-11-07T22:57:44.442Z,80.51
2022-11-07T23:00:23.000Z,80.75
2022-11-07T23:02:55.927Z,80.71
2022-11-07T23:05:29.445Z,80.59
2022-11-07T23:08:19.873Z,80.61
2022-11-07T23:11:32.530Z,80.38
2022-11-07T23:14:00.774Z,80.16
2022-11-07T23:16:35.230Z,80.01
2022-11-07T23:19:12.568Z,79.79
2022-11-07T23:21:46.842Z,80.27
2022-11-07T23:24:19.067Z,80.45
2022-11-07T23:26:52.523Z,80.49
2022-11-07T23:29:26.816Z,80.40
2022-11-07T23:31:57.968Z,80.85
2022-11-07T23:34:57.779Z,81.22
2022-11-07T23:37:31.528Z,81.19
2022-11-07T23:40:04.026Z,81.48
2022-11-07T23:42:36.325Z,81.36
2022-11-07T23:45:30.749Z,80.88
2022-11-07T23:48:22.339Z,81.30
2022-11-07T23:51:03.593Z,81.31
2022-11-07T23:53:58.200Z,81.26
2022-11-07T23:56:31.611Z,81.37
2022-11-07T23:59:22.258Z,81.00
